createdAt,value
2023-05-11T00:00:46.403Z,42.86
2023-05-11T00:01:46.489Z,42.54
2023-05-11T00:02:46.469Z,41.89
2023-05-11T00:03:46.471Z,48.82
2023-05-11T00:04:46.391Z,42.38
2023-05-11T00:05:46.379Z,40.28
2023-05-11T00:06:46.371Z,42.70
2023-05-11T00:07:46.425Z,41.57
2023-05-11T00:08:46.331Z,43.18
2023-05-11T00:09:46.317Z,41.25
2023-05-11T00:10:46.319Z,43.02
2023-05-11T00:11:46.339Z,40.93
2023-05-11T00:12:46.800Z,44.15
2023-05-11T00:13:46.661Z,42.06
2023-05-11T00:14:46.274Z,40.12
2023-05-11T00:15:46.273Z,39.96
2023-05-11T00:16:46.275Z,41.09
2023-05-11T00:17:46.304Z,39.48
2023-05-11T00:18:46.316Z,40.77
2023-05-11T00:19:46.248Z,40.12
2023-05-11T00:20:46.205Z,40.77
2023-05-11T00:21:46.224Z,44.47
2023-05-11T00:22:46.194Z,43.99
2023-05-11T00:23:46.184Z,40.12
2023-05-11T00:24:46.223Z,41.41
2023-05-11T00:25:46.181Z,40.12
2023-05-11T00:26:46.187Z,41.09
2023-05-11T00:27:47.135Z,40.44
2023-05-11T00:28:46.126Z,42.86
2023-05-11T00:29:46.139Z,40.28
2023-05-11T00:30:46.155Z,40.61
2023-05-11T00:31:46.139Z,41.89
2023-05-11T00:32:46.119Z,45.92
2023-05-11T00:33:46.069Z,40.77
2023-05-11T00:34:46.167Z,39.96
2023-05-11T00:35:46.116Z,43.02
2023-05-11T00:36:46.886Z,40.93
2023-05-11T00:37:46.069Z,42.38
2023-05-11T00:38:46.036Z,41.89
2023-05-11T00:39:46.151Z,41.09
2023-05-11T00:40:46.009Z,40.93
2023-05-11T00:41:46.019Z,43.67
2023-05-11T00:42:46.027Z,41.89
2023-05-11T00:43:46.507Z,41.73
2023-05-11T00:44:45.996Z,48.02
2023-05-11T00:45:46.041Z,47.53
2023-05-11T00:46:45.957Z,42.70
2023-05-11T00:47:45.993Z,43.51
2023-05-11T00:48:45.931Z,40.44
2023-05-11T00:49:45.912Z,40.12
2023-05-11T00:50:45.918Z,42.86
2023-05-11T00:51:45.900Z,43.99
2023-05-11T00:52:45.945Z,41.09
2023-05-11T00:53:45.905Z,41.73
2023-05-11T00:54:45.871Z,45.76
2023-05-11T00:55:45.857Z,40.61
2023-05-11T00:56:45.854Z,43.83
2023-05-11T00:57:45.833Z,43.67
2023-05-11T00:58:45.838Z,43.51
2023-05-11T00:59:45.821Z,46.89
2023-05-11T01:00:45.877Z,40.93
2023-05-11T01:01:45.830Z,40.61
2023-05-11T01:02:45.889Z,41.25
2023-05-11T01:03:45.787Z,40.12
2023-05-11T01:04:45.768Z,43.02
2023-05-11T01:05:45.769Z,40.93
2023-05-11T01:06:45.767Z,43.18
2023-05-11T01:07:45.737Z,44.96
2023-05-11T01:08:45.727Z,43.83
2023-05-11T01:09:45.731Z,50.92
2023-05-11T01:10:45.708Z,43.34
2023-05-11T01:11:45.771Z,43.18
2023-05-11T01:12:45.723Z,39.96
2023-05-11T01:13:45.688Z,41.09
2023-05-11T01:14:45.673Z,44.31
2023-05-11T01:15:45.656Z,44.79
2023-05-11T01:16:45.719Z,46.41
2023-05-11T01:17:45.681Z,40.77
2023-05-11T01:18:45.677Z,43.99
2023-05-11T01:19:45.618Z,45.92
2023-05-11T01:20:45.637Z,41.73
2023-05-11T01:21:45.632Z,43.99
2023-05-11T01:22:45.645Z,45.44
2023-05-11T01:23:45.576Z,40.61
2023-05-11T01:24:45.654Z,42.38
2023-05-11T01:25:45.569Z,43.02
2023-05-11T01:26:45.579Z,45.44
2023-05-11T01:27:45.561Z,41.41
2023-05-11T01:28:45.530Z,40.77
2023-05-11T01:29:45.524Z,40.28
2023-05-11T01:30:45.959Z,40.61
2023-05-11T01:31:45.571Z,42.38
2023-05-11T01:32:45.568Z,46.73
2023-05-11T01:33:46.502Z,40.44
2023-05-11T01:34:46.549Z,40.77
2023-05-11T01:35:45.843Z,41.89
2023-05-11T01:36:45.454Z,40.12
2023-05-11T01:37:45.454Z,40.61
2023-05-11T01:38:46.450Z,46.25
2023-05-11T01:39:45.414Z,41.25
2023-05-11T01:40:45.421Z,44.63
2023-05-11T01:41:45.422Z,40.93
2023-05-11T01:42:46.590Z,43.34
2023-05-11T01:43:45.389Z,41.57
2023-05-11T01:44:45.391Z,41.09
2023-05-11T01:45:45.448Z,58.65
2023-05-11T01:46:45.407Z,44.15
2023-05-11T01:47:45.375Z,43.99
2023-05-11T01:48:45.326Z,40.61
2023-05-11T01:49:46.350Z,41.41
2023-05-11T01:50:45.339Z,41.09
2023-05-11T01:51:45.314Z,42.38
2023-05-11T01:52:45.339Z,48.66
2023-05-11T01:53:45.312Z,41.89
2023-05-11T01:54:45.289Z,40.61
2023-05-11T01:55:45.265Z,41.57
2023-05-11T01:56:45.267Z,45.60
2023-05-11T01:57:45.269Z,45.12
2023-05-11T01:58:45.234Z,42.86
2023-05-11T01:59:45.230Z,43.51
2023-05-11T02:00:45.230Z,43.02
2023-05-11T02:01:45.306Z,44.96
2023-05-11T02:02:45.367Z,43.51
2023-05-11T02:03:45.270Z,44.47
2023-05-11T02:04:45.198Z,43.51
2023-05-11T02:05:45.163Z,44.15
2023-05-11T02:06:45.154Z,47.86
2023-05-11T02:07:45.186Z,47.37
2023-05-11T02:08:45.152Z,46.08
2023-05-11T02:09:45.141Z,46.73
2023-05-11T02:10:45.112Z,46.41
2023-05-11T02:11:45.140Z,44.79
2023-05-11T02:12:45.104Z,42.70
2023-05-11T02:13:45.090Z,43.18
2023-05-11T02:14:45.100Z,43.99
2023-05-11T02:15:45.103Z,43.99
2023-05-11T02:16:45.051Z,43.67
2023-05-11T02:17:47.231Z,48.18
2023-05-11T02:18:45.088Z,42.86
2023-05-11T02:19:45.488Z,44.79
2023-05-11T02:20:45.076Z,45.92
2023-05-11T02:21:45.338Z,47.05
2023-05-11T02:22:45.010Z,43.51
2023-05-11T02:23:44.977Z,45.44
2023-05-11T02:24:44.975Z,45.28
2023-05-11T02:25:45.378Z,46.73
2023-05-11T02:26:44.950Z,44.96
2023-05-11T02:27:44.985Z,41.41
2023-05-11T02:28:45.888Z,41.73
2023-05-11T02:29:44.938Z,42.54
2023-05-11T02:30:44.983Z,45.28
2023-05-11T02:31:44.934Z,50.92
2023-05-11T02:32:44.945Z,53.66
2023-05-11T02:33:44.882Z,44.63
2023-05-11T02:34:44.880Z,56.88
2023-05-11T02:35:45.883Z,48.66
2023-05-11T02:36:44.873Z,44.47
2023-05-11T02:37:44.874Z,41.09
2023-05-11T02:38:44.822Z,42.54
2023-05-11T02:39:44.819Z,43.99
2023-05-11T02:40:44.811Z,46.57
2023-05-11T02:41:44.846Z,49.79
2023-05-11T02:42:44.814Z,43.99
2023-05-11T02:43:44.781Z,43.83
2023-05-11T02:44:44.770Z,42.54
2023-05-11T02:45:44.779Z,47.37
2023-05-11T02:46:44.766Z,43.02
2023-05-11T02:47:44.813Z,42.06
2023-05-11T02:48:44.741Z,46.25
2023-05-11T02:49:44.975Z,48.50
2023-05-11T02:50:44.992Z,48.82
2023-05-11T02:51:45.733Z,46.41
2023-05-11T02:52:44.736Z,47.70
2023-05-11T02:53:44.918Z,48.34
2023-05-11T02:54:44.662Z,48.98
2023-05-11T02:55:44.679Z,49.95
2023-05-11T02:56:45.676Z,48.50
2023-05-11T02:57:44.679Z,52.85
2023-05-11T02:58:44.649Z,49.15
2023-05-11T02:59:44.635Z,51.72
2023-05-11T03:00:44.732Z,54.46
2023-05-11T03:01:44.729Z,54.30
2023-05-11T03:02:44.651Z,55.59
2023-05-11T03:03:44.745Z,48.66
2023-05-11T03:04:44.619Z,48.98
2023-05-11T03:05:44.591Z,51.56
2023-05-11T03:06:44.590Z,49.79
2023-05-11T03:07:44.552Z,48.18
2023-05-11T03:08:44.560Z,47.86
2023-05-11T03:09:44.540Z,54.95
2023-05-11T03:10:44.516Z,52.53
2023-05-11T03:11:44.571Z,51.24
2023-05-11T03:12:44.511Z,48.50
2023-05-11T03:13:44.494Z,50.60
2023-05-11T03:14:44.469Z,50.76
2023-05-11T03:15:44.491Z,50.92
2023-05-11T03:16:44.498Z,52.53
2023-05-11T03:17:44.498Z,48.50
2023-05-11T03:18:45.482Z,53.66
2023-05-11T03:19:46.523Z,48.82
2023-05-11T03:20:44.419Z,49.95
2023-05-11T03:21:44.414Z,50.27
2023-05-11T03:22:44.465Z,51.40
2023-05-11T03:23:44.410Z,52.21
2023-05-11T03:24:44.396Z,50.11
2023-05-11T03:25:46.896Z,48.18
2023-05-11T03:26:44.412Z,51.40
2023-05-11T03:27:45.918Z,52.85
2023-05-11T03:28:44.350Z,56.07
2023-05-11T03:29:44.330Z,54.62
2023-05-11T03:30:44.319Z,48.98
2023-05-11T03:31:44.361Z,46.89
2023-05-11T03:32:44.351Z,52.21
2023-05-11T03:33:44.296Z,52.69
2023-05-11T03:34:44.304Z,55.59
2023-05-11T03:35:44.336Z,50.76
2023-05-11T03:36:44.263Z,50.60
2023-05-11T03:37:45.287Z,52.69
2023-05-11T03:38:44.260Z,52.85
2023-05-11T03:39:44.250Z,54.46
2023-05-11T03:40:44.253Z,52.53
2023-05-11T03:41:44.219Z,52.85
2023-05-11T03:42:44.211Z,53.98
2023-05-11T03:43:44.196Z,49.63
2023-05-11T03:44:44.201Z,52.69
2023-05-11T03:45:44.202Z,53.17
2023-05-11T03:46:44.222Z,58.17
2023-05-11T03:47:44.192Z,49.31
2023-05-11T03:48:44.181Z,48.98
2023-05-11T03:49:44.149Z,52.37
2023-05-11T03:50:44.135Z,50.27
2023-05-11T03:51:44.145Z,49.95
2023-05-11T03:52:44.109Z,44.47
2023-05-11T03:53:44.121Z,49.15
2023-05-11T03:54:44.115Z,50.43
2023-05-11T03:55:44.074Z,47.21
2023-05-11T03:56:44.063Z,49.15
2023-05-11T03:57:44.081Z,52.21
2023-05-11T03:58:44.086Z,50.27
2023-05-11T03:59:44.034Z,52.21
2023-05-11T04:00:44.122Z,45.44
2023-05-11T04:01:44.089Z,50.27
2023-05-11T04:02:44.072Z,50.43
2023-05-11T04:03:44.172Z,52.21
2023-05-11T04:04:44.740Z,52.21
2023-05-11T04:05:43.951Z,53.66
2023-05-11T04:06:43.984Z,52.37
2023-05-11T04:07:43.987Z,50.76
2023-05-11T04:08:44.021Z,51.88
2023-05-11T04:09:43.937Z,52.53
2023-05-11T04:10:43.926Z,49.31
2023-05-11T04:11:43.920Z,50.60
2023-05-11T04:12:43.938Z,51.40
2023-05-11T04:13:43.919Z,50.27
2023-05-11T04:14:43.900Z,53.82
2023-05-11T04:15:43.918Z,52.53
2023-05-11T04:16:43.864Z,54.46
2023-05-11T04:17:43.890Z,53.33
2023-05-11T04:18:43.926Z,53.33
2023-05-11T04:19:43.855Z,55.43
2023-05-11T04:20:44.039Z,57.52
2023-05-11T04:21:43.854Z,55.43
2023-05-11T04:22:43.824Z,53.98
2023-05-11T04:23:43.813Z,53.33
2023-05-11T04:24:43.807Z,56.24
2023-05-11T04:25:43.787Z,54.30
2023-05-11T04:26:43.747Z,54.14
2023-05-11T04:27:44.743Z,53.33
2023-05-11T04:28:43.730Z,53.33
2023-05-11T04:29:43.757Z,52.69
2023-05-11T04:30:43.714Z,58.33
2023-05-11T04:31:43.859Z,56.24
2023-05-11T04:32:43.780Z,57.20
2023-05-11T04:33:43.690Z,52.85
2023-05-11T04:34:43.710Z,53.33
2023-05-11T04:36:15.578Z,53.82
2023-05-11T04:36:43.649Z,61.23
2023-05-11T04:37:43.662Z,53.82
2023-05-11T04:38:43.650Z,55.75
2023-05-11T04:39:43.633Z,55.27
2023-05-11T04:40:43.639Z,55.91
2023-05-11T04:41:43.606Z,55.27
2023-05-11T04:42:43.614Z,56.24
2023-05-11T04:43:43.605Z,56.56
2023-05-11T04:44:43.562Z,54.79
2023-05-11T04:45:43.555Z,56.24
2023-05-11T04:46:43.620Z,54.62
2023-05-11T04:47:43.561Z,53.33
2023-05-11T04:48:43.570Z,53.17
2023-05-11T04:49:43.524Z,54.95
2023-05-11T04:50:43.568Z,56.40
2023-05-11T04:51:43.513Z,57.85
2023-05-11T04:52:43.500Z,57.36
2023-05-11T04:53:43.519Z,56.56
2023-05-11T04:54:43.486Z,55.43
2023-05-11T04:55:43.500Z,55.43
2023-05-11T04:56:43.453Z,55.91
2023-05-11T04:57:43.517Z,53.50
2023-05-11T04:58:43.458Z,54.79
2023-05-11T04:59:43.485Z,55.91
2023-05-11T05:00:43.489Z,54.14
2023-05-11T05:01:43.438Z,52.53
2023-05-11T05:02:43.438Z,55.11
2023-05-11T05:03:43.395Z,54.79
2023-05-11T05:04:43.378Z,53.33
2023-05-11T05:05:43.416Z,53.01
2023-05-11T05:06:43.364Z,56.56
2023-05-11T05:07:43.357Z,53.82
2023-05-11T05:08:43.342Z,57.69
2023-05-11T05:09:45.222Z,56.40
2023-05-11T05:10:44.341Z,56.56
2023-05-11T05:11:43.312Z,55.75
2023-05-11T05:12:43.307Z,56.07
2023-05-11T05:13:43.276Z,55.27
2023-05-11T05:14:43.277Z,56.40
2023-05-11T05:15:43.314Z,55.27
2023-05-11T05:16:43.346Z,55.59
2023-05-11T05:17:43.347Z,55.43
2023-05-11T05:18:43.322Z,56.40
2023-05-11T05:19:43.230Z,56.56
2023-05-11T05:20:43.223Z,55.27
2023-05-11T05:21:43.204Z,53.82
2023-05-11T05:22:43.198Z,56.24
2023-05-11T05:23:43.236Z,56.24
2023-05-11T05:24:43.179Z,55.43
2023-05-11T05:25:43.190Z,54.30
2023-05-11T05:26:43.153Z,55.27
2023-05-11T05:27:43.151Z,55.75
2023-05-11T05:28:43.167Z,56.56
2023-05-11T05:29:43.130Z,56.24
2023-05-11T05:30:43.138Z,56.40
2023-05-11T05:31:43.111Z,54.95
2023-05-11T05:32:43.161Z,55.59
2023-05-11T05:33:43.114Z,56.72
2023-05-11T05:34:43.104Z,53.82
2023-05-11T05:35:43.107Z,56.24
2023-05-11T05:36:43.073Z,56.56
2023-05-11T05:37:43.049Z,56.56
2023-05-11T05:38:43.041Z,53.82
2023-05-11T05:39:43.042Z,56.07
2023-05-11T05:40:43.028Z,55.59
2023-05-11T05:41:43.012Z,55.59
2023-05-11T05:42:42.994Z,56.56
2023-05-11T05:43:42.989Z,55.75
2023-05-11T05:44:43.010Z,57.20
2023-05-11T05:45:43.023Z,57.69
2023-05-11T05:46:43.068Z,56.88
2023-05-11T05:47:42.975Z,57.69
2023-05-11T05:48:42.947Z,57.20
2023-05-11T05:49:42.935Z,57.69
2023-05-11T05:50:42.915Z,56.72
2023-05-11T05:51:42.922Z,54.95
2023-05-11T05:52:42.903Z,55.75
2023-05-11T05:53:42.875Z,57.04
2023-05-11T05:54:42.875Z,56.24
2023-05-11T05:55:42.876Z,54.14
2023-05-11T05:56:42.864Z,54.46
2023-05-11T05:57:43.009Z,53.82
2023-05-11T05:58:42.858Z,53.33
2023-05-11T05:59:42.875Z,53.50
2023-05-11T06:00:42.832Z,51.72
2023-05-11T06:01:42.808Z,56.72
2023-05-11T06:02:42.950Z,55.75
2023-05-11T06:03:43.013Z,56.07
2023-05-11T06:04:42.867Z,55.75
2023-05-11T06:05:42.776Z,54.30
2023-05-11T06:06:42.770Z,53.66
2023-05-11T06:07:43.121Z,53.17
2023-05-11T06:08:42.734Z,55.59
2023-05-11T06:09:42.730Z,54.95
2023-05-11T06:10:42.743Z,55.43
2023-05-11T06:11:42.737Z,53.98
2023-05-11T06:12:42.704Z,54.30
2023-05-11T06:13:42.706Z,53.66
2023-05-11T06:14:42.709Z,54.46
2023-05-11T06:15:43.826Z,55.43
2023-05-11T06:16:43.666Z,56.56
2023-05-11T06:17:42.787Z,56.56
2023-05-11T06:18:42.693Z,55.91
2023-05-11T06:19:42.632Z,55.59
2023-05-11T06:20:42.609Z,57.52
2023-05-11T06:21:42.633Z,57.20
2023-05-11T06:22:42.584Z,56.24
2023-05-11T06:23:42.586Z,55.75
2023-05-11T06:24:42.566Z,57.52
2023-05-11T06:25:42.558Z,56.24
2023-05-11T06:26:42.556Z,55.43
2023-05-11T06:27:42.578Z,53.66
2023-05-11T06:28:42.552Z,52.69
2023-05-11T06:29:42.527Z,53.66
2023-05-11T06:30:42.505Z,50.92
2023-05-11T06:31:42.590Z,54.95
2023-05-11T06:32:42.530Z,53.82
2023-05-11T06:33:42.498Z,55.43
2023-05-11T06:34:42.492Z,54.46
2023-05-11T06:35:42.509Z,53.98
2023-05-11T06:36:42.484Z,54.79
2023-05-11T06:37:42.437Z,55.11
2023-05-11T06:38:42.451Z,54.46
2023-05-11T06:39:42.432Z,52.69
2023-05-11T06:40:42.437Z,56.56
2023-05-11T06:41:42.448Z,54.62
2023-05-11T06:42:42.415Z,57.69
2023-05-11T06:43:42.412Z,57.04
2023-05-11T06:44:42.575Z,57.52
2023-05-11T06:45:42.365Z,55.27
2023-05-11T06:46:42.401Z,55.75
2023-05-11T06:47:42.440Z,56.07
2023-05-11T06:48:42.334Z,55.11
2023-05-11T06:49:42.337Z,53.98
2023-05-11T06:50:42.338Z,55.91
2023-05-11T06:51:42.315Z,54.79
2023-05-11T06:52:42.309Z,55.91
2023-05-11T06:53:42.280Z,55.91
2023-05-11T06:54:42.278Z,53.50
2023-05-11T06:55:42.252Z,56.24
2023-05-11T06:56:42.296Z,57.85
2023-05-11T06:57:42.238Z,55.75
2023-05-11T06:58:42.244Z,54.46
2023-05-11T06:59:42.221Z,54.79
2023-05-11T07:00:42.220Z,55.11
2023-05-11T07:01:42.286Z,54.95
2023-05-11T07:02:42.250Z,52.69
2023-05-11T07:03:42.187Z,52.85
2023-05-11T07:04:42.224Z,52.85
2023-05-11T07:05:42.149Z,52.37
2023-05-11T07:06:42.134Z,51.40
2023-05-11T07:07:42.166Z,50.43
2023-05-11T07:08:42.138Z,55.59
2023-05-11T07:09:42.257Z,53.98
2023-05-11T07:10:42.112Z,55.11
2023-05-11T07:11:42.117Z,55.75
2023-05-11T07:12:42.084Z,53.66
2023-05-11T07:13:42.081Z,56.24
2023-05-11T07:14:42.058Z,53.33
2023-05-11T07:15:42.037Z,52.85
2023-05-11T07:16:42.131Z,58.01
2023-05-11T07:17:42.039Z,55.59
2023-05-11T07:18:42.052Z,55.59
2023-05-11T07:19:42.010Z,54.79
2023-05-11T07:20:42.065Z,52.37
2023-05-11T07:21:41.984Z,52.53
2023-05-11T07:22:41.968Z,54.46
2023-05-11T07:23:41.964Z,52.37
2023-05-11T07:24:41.965Z,54.30
2023-05-11T07:25:41.935Z,54.30
2023-05-11T07:26:41.941Z,55.43
2023-05-11T07:27:41.907Z,53.01
2023-05-11T07:28:41.902Z,54.46
2023-05-11T07:29:41.954Z,57.04
2023-05-11T07:30:41.891Z,56.07
2023-05-11T07:31:41.908Z,55.11
2023-05-11T07:32:41.884Z,53.66
2023-05-11T07:33:41.857Z,54.79
2023-05-11T07:34:41.836Z,52.85
2023-05-11T07:35:41.862Z,52.85
2023-05-11T07:36:41.821Z,56.72
2023-05-11T07:37:41.834Z,54.95
2023-05-11T07:38:41.810Z,52.05
2023-05-11T07:39:41.795Z,55.75
2023-05-11T07:40:41.838Z,53.66
2023-05-11T07:41:41.776Z,54.46
2023-05-11T07:42:41.761Z,55.43
2023-05-11T07:43:41.749Z,54.30
2023-05-11T07:44:41.780Z,56.56
2023-05-11T07:45:41.763Z,56.24
2023-05-11T07:46:41.917Z,56.40
2023-05-11T07:47:41.789Z,56.24
2023-05-11T07:48:41.733Z,56.56
2023-05-11T07:49:44.085Z,58.01
2023-05-11T07:50:41.702Z,55.75
2023-05-11T07:51:41.677Z,56.07
2023-05-11T07:52:41.665Z,56.24
2023-05-11T07:53:41.673Z,57.20
2023-05-11T07:54:41.670Z,54.79
2023-05-11T07:55:41.705Z,55.43
2023-05-11T07:56:41.621Z,53.98
2023-05-11T07:57:41.638Z,53.66
2023-05-11T07:58:41.602Z,54.95
2023-05-11T07:59:41.616Z,56.07
2023-05-11T08:00:41.601Z,54.14
2023-05-11T08:01:41.608Z,53.50
2023-05-11T08:02:41.640Z,55.59
2023-05-11T08:03:41.565Z,55.91
2023-05-11T08:04:41.541Z,55.75
2023-05-11T08:05:41.594Z,53.82
2023-05-11T08:06:41.517Z,56.07
2023-05-11T08:07:41.820Z,55.11
2023-05-11T08:08:41.524Z,54.46
2023-05-11T08:09:42.526Z,53.82
2023-05-11T08:10:41.507Z,55.27
2023-05-11T08:11:41.476Z,54.95
2023-05-11T08:12:41.458Z,55.27
2023-05-11T08:13:41.453Z,53.01
2023-05-11T08:14:41.468Z,53.66
2023-05-11T08:15:41.489Z,55.11
2023-05-11T08:16:41.581Z,54.79
2023-05-11T08:17:41.434Z,54.95
2023-05-11T08:18:41.482Z,55.11
2023-05-11T08:19:41.416Z,53.66
2023-05-11T08:20:41.418Z,56.40
2023-05-11T08:21:41.378Z,54.46
2023-05-11T08:22:41.387Z,56.40
2023-05-11T08:23:42.873Z,56.56
2023-05-11T08:24:41.349Z,53.98
2023-05-11T08:25:41.351Z,54.79
2023-05-11T08:26:41.328Z,57.69
2023-05-11T08:27:41.333Z,56.72
2023-05-11T08:28:41.301Z,55.91
2023-05-11T08:29:41.335Z,54.46
2023-05-11T08:30:41.289Z,57.36
2023-05-11T08:31:41.384Z,54.46
2023-05-11T08:32:57.191Z,54.79
2023-05-11T08:33:43.381Z,56.56
2023-05-11T08:34:41.426Z,51.88
2023-05-11T08:35:41.233Z,54.95
2023-05-11T08:36:41.233Z,54.46
2023-05-11T08:37:41.231Z,54.79
2023-05-11T08:38:41.204Z,54.95
2023-05-11T08:39:47.406Z,54.14
2023-05-11T08:40:43.188Z,55.91
2023-05-11T08:41:41.192Z,54.95
2023-05-11T08:42:41.204Z,55.91
2023-05-11T08:43:41.156Z,55.59
2023-05-11T08:44:41.142Z,54.46
2023-05-11T08:45:41.175Z,55.11
2023-05-11T08:46:41.153Z,55.91
2023-05-11T08:47:41.117Z,54.46
2023-05-11T08:48:41.115Z,54.79
2023-05-11T08:49:41.104Z,55.27
2023-05-11T08:50:41.112Z,55.91
2023-05-11T08:51:41.127Z,53.66
2023-05-11T08:52:41.064Z,55.59
2023-05-11T08:53:41.054Z,55.27
2023-05-11T08:54:41.060Z,55.43
2023-05-11T08:55:41.053Z,56.72
2023-05-11T08:56:41.072Z,55.75
2023-05-11T08:57:41.042Z,54.46
2023-05-11T08:58:41.021Z,55.59
2023-05-11T08:59:40.998Z,54.62
2023-05-11T09:00:40.988Z,55.43
2023-05-11T09:01:41.051Z,54.95
2023-05-11T09:02:40.999Z,54.95
2023-05-11T09:03:40.968Z,55.75
2023-05-11T09:04:40.975Z,56.07
2023-05-11T09:05:40.986Z,53.98
2023-05-11T09:06:40.932Z,53.33
2023-05-11T09:07:40.945Z,52.37
2023-05-11T09:08:40.968Z,53.66
2023-05-11T09:09:40.885Z,52.53
2023-05-11T09:10:40.871Z,52.21
2023-05-11T09:11:40.874Z,52.85
2023-05-11T09:12:40.843Z,52.53
2023-05-11T09:13:40.879Z,48.98
2023-05-11T09:14:40.836Z,53.66
2023-05-11T09:15:40.929Z,56.07
2023-05-11T09:16:40.837Z,54.79
2023-05-11T09:17:40.814Z,55.43
2023-05-11T09:18:40.829Z,54.79
2023-05-11T09:19:40.837Z,55.43
2023-05-11T09:20:40.764Z,56.56
2023-05-11T09:21:40.755Z,56.88
2023-05-11T09:22:40.797Z,57.20
2023-05-11T09:23:40.751Z,54.46
2023-05-11T09:24:40.750Z,54.46
2023-05-11T09:25:40.752Z,54.30
2023-05-11T09:26:40.714Z,54.95
2023-05-11T09:27:41.620Z,53.17
2023-05-11T09:29:41.688Z,52.85
2023-05-11T09:30:40.701Z,53.66
2023-05-11T09:31:40.707Z,53.33
2023-05-11T09:32:40.695Z,52.69
2023-05-11T09:33:40.650Z,52.85
2023-05-11T09:34:43.197Z,54.95
2023-05-11T09:35:41.634Z,54.95
2023-05-11T09:36:40.612Z,55.27
2023-05-11T09:37:40.678Z,57.36
2023-05-11T09:38:40.606Z,52.85
2023-05-11T09:39:59.194Z,52.53
2023-05-11T09:40:43.189Z,55.91
2023-05-11T09:41:40.600Z,54.30
2023-05-11T09:42:40.560Z,53.50
2023-05-11T09:43:40.599Z,57.04
2023-05-11T09:44:40.537Z,54.79
2023-05-11T09:45:40.522Z,55.59
2023-05-11T09:46:40.539Z,56.88
2023-05-11T09:47:40.548Z,56.24
2023-05-11T09:48:40.521Z,55.75
2023-05-11T09:49:40.489Z,56.56
2023-05-11T09:50:40.494Z,56.24
2023-05-11T09:51:40.468Z,56.07
2023-05-11T09:52:40.459Z,53.82
2023-05-11T09:53:40.480Z,54.14
2023-05-11T09:54:40.437Z,55.75
2023-05-11T09:55:40.447Z,53.50
2023-05-11T09:56:40.437Z,54.30
2023-05-11T09:57:40.415Z,54.79
2023-05-11T09:58:40.451Z,54.14
2023-05-11T09:59:40.390Z,53.01
2023-05-11T10:00:40.382Z,54.95
2023-05-11T10:01:40.429Z,54.95
2023-05-11T10:02:40.416Z,55.75
2023-05-11T10:03:40.421Z,54.95
2023-05-11T10:04:40.351Z,55.91
2023-05-11T10:05:40.337Z,55.75
2023-05-11T10:06:40.339Z,55.59
2023-05-11T10:07:40.308Z,55.91
2023-05-11T10:08:40.306Z,56.40
2023-05-11T10:09:40.288Z,56.56
2023-05-11T10:10:40.286Z,54.62
2023-05-11T10:11:40.273Z,55.75
2023-05-11T10:12:40.343Z,56.40
2023-05-11T10:13:40.245Z,53.17
2023-05-11T10:14:40.278Z,53.17
2023-05-11T10:15:40.239Z,55.11
2023-05-11T10:16:40.282Z,54.79
2023-05-11T10:17:40.252Z,55.91
2023-05-11T10:18:40.268Z,54.95
2023-05-11T10:19:40.204Z,53.33
2023-05-11T10:20:40.180Z,54.14
2023-05-11T10:21:40.159Z,56.56
2023-05-11T10:22:40.241Z,54.79
2023-05-11T10:23:40.165Z,52.69
2023-05-11T10:24:40.136Z,55.27
2023-05-11T10:25:40.128Z,53.50
2023-05-11T10:26:40.142Z,53.98
2023-05-11T10:27:40.136Z,53.82
2023-05-11T10:28:40.121Z,54.46
2023-05-11T10:29:40.114Z,54.79
2023-05-11T10:30:40.095Z,55.27
2023-05-11T10:31:40.151Z,56.56
2023-05-11T10:32:40.086Z,56.24
2023-05-11T10:33:40.040Z,57.20
2023-05-11T10:34:40.040Z,57.04
2023-05-11T10:36:12.000Z,57.52
2023-05-11T10:36:40.044Z,56.88
2023-05-11T10:37:40.010Z,56.07
2023-05-11T10:38:40.042Z,54.79
2023-05-11T10:39:40.012Z,53.17
2023-05-11T10:40:39.998Z,54.46
2023-05-11T10:41:39.996Z,53.66
2023-05-11T10:42:39.995Z,52.85
2023-05-11T10:43:39.958Z,53.66
2023-05-11T10:44:39.949Z,55.11
2023-05-11T10:45:39.981Z,54.95
2023-05-11T10:46:39.942Z,55.59
2023-05-11T10:47:40.012Z,54.95
2023-05-11T10:48:39.901Z,54.30
2023-05-11T10:49:39.951Z,53.82
2023-05-11T10:50:42.836Z,53.98
2023-05-11T10:51:39.893Z,55.75
2023-05-11T10:52:39.895Z,55.43
2023-05-11T10:53:39.880Z,56.24
2023-05-11T10:54:39.857Z,55.27
2023-05-11T10:55:39.858Z,52.69
2023-05-11T10:56:39.827Z,52.85
2023-05-11T10:57:39.838Z,53.66
2023-05-11T10:58:39.842Z,54.62
2023-05-11T10:59:39.856Z,54.95
2023-05-11T11:00:39.836Z,54.79
2023-05-11T11:01:39.839Z,53.17
2023-05-11T11:02:39.791Z,55.59
2023-05-11T11:03:39.766Z,53.01
2023-05-11T11:04:39.766Z,54.79
2023-05-11T11:05:39.770Z,55.91
2023-05-11T11:06:39.754Z,56.24
2023-05-11T11:07:39.733Z,56.40
2023-05-11T11:08:39.736Z,54.14
2023-05-11T11:09:39.749Z,55.11
2023-05-11T11:10:39.698Z,55.91
2023-05-11T11:11:39.676Z,56.07
2023-05-11T11:12:39.657Z,55.11
2023-05-11T11:13:39.652Z,56.07
2023-05-11T11:14:39.667Z,55.43
2023-05-11T11:15:39.647Z,55.27
2023-05-11T11:16:39.628Z,54.62
2023-05-11T11:17:39.676Z,55.27
2023-05-11T11:18:39.632Z,53.50
2023-05-11T11:19:39.618Z,54.62
2023-05-11T11:20:39.599Z,54.30
2023-05-11T11:21:39.569Z,54.95
2023-05-11T11:22:39.577Z,55.59
2023-05-11T11:23:39.573Z,53.98
2023-05-11T11:24:39.570Z,54.46
2023-05-11T11:25:40.568Z,53.66
2023-05-11T11:26:39.548Z,55.91
2023-05-11T11:27:39.518Z,53.66
2023-05-11T11:28:39.496Z,52.21
2023-05-11T11:29:39.491Z,55.75
2023-05-11T11:30:39.505Z,54.95
2023-05-11T11:31:39.536Z,54.14
2023-05-11T11:32:39.528Z,52.69
2023-05-11T11:33:39.467Z,52.21
2023-05-11T11:34:39.506Z,52.69
2023-05-11T11:35:39.483Z,58.01
2023-05-11T11:36:39.461Z,55.59
2023-05-11T11:37:39.436Z,55.75
2023-05-11T11:38:39.420Z,54.79
2023-05-11T11:39:39.443Z,55.27
2023-05-11T11:40:50.093Z,55.75
2023-05-11T11:41:40.388Z,54.95
2023-05-11T11:42:39.407Z,53.98
2023-05-11T11:43:39.373Z,52.53
2023-05-11T11:44:39.361Z,53.82
2023-05-11T11:45:39.382Z,52.69
2023-05-11T11:46:39.364Z,53.98
2023-05-11T11:47:39.421Z,53.17
2023-05-11T11:48:39.330Z,53.82
2023-05-11T11:49:39.330Z,52.53
2023-05-11T11:50:39.309Z,53.66
2023-05-11T11:51:39.333Z,54.30
2023-05-11T11:52:39.314Z,55.91
2023-05-11T11:53:39.285Z,53.66
2023-05-11T11:54:39.271Z,55.43
2023-05-11T11:55:39.253Z,54.95
2023-05-11T11:56:39.264Z,50.92
2023-05-11T11:57:39.261Z,54.30
2023-05-11T11:58:39.213Z,53.66
2023-05-11T11:59:39.229Z,53.01
2023-05-11T12:00:39.231Z,54.62
2023-05-11T12:01:39.255Z,57.36
2023-05-11T12:02:39.236Z,56.24
2023-05-11T12:03:39.341Z,56.07
2023-05-11T12:04:39.159Z,56.56
2023-05-11T12:05:39.144Z,56.56
2023-05-11T12:06:39.251Z,55.75
2023-05-11T12:07:39.127Z,56.24
2023-05-11T12:08:39.188Z,56.07
2023-05-11T12:09:39.215Z,56.07
2023-05-11T12:10:39.104Z,56.40
2023-05-11T12:11:39.106Z,56.88
2023-05-11T12:12:39.082Z,53.82
2023-05-11T12:13:39.108Z,55.59
2023-05-11T12:14:39.083Z,56.07
2023-05-11T12:15:39.049Z,55.11
2023-05-11T12:16:39.063Z,54.95
2023-05-11T12:17:39.097Z,54.79
2023-05-11T12:18:39.077Z,56.24
2023-05-11T12:19:39.006Z,54.46
2023-05-11T12:20:39.017Z,55.43
2023-05-11T12:21:38.992Z,55.91
2023-05-11T12:22:38.974Z,55.43
2023-05-11T12:23:39.002Z,56.24
2023-05-11T12:24:38.986Z,58.17
2023-05-11T12:25:38.948Z,55.91
2023-05-11T12:26:38.941Z,56.56
2023-05-11T12:27:38.938Z,57.20
2023-05-11T12:28:38.918Z,57.20
2023-05-11T12:29:38.940Z,56.72
2023-05-11T12:30:38.920Z,53.50
2023-05-11T12:31:39.030Z,53.33
2023-05-11T12:32:38.906Z,56.07
2023-05-11T12:33:38.867Z,54.46
2023-05-11T12:34:38.863Z,56.40
2023-05-11T12:35:38.847Z,55.27
2023-05-11T12:36:38.887Z,52.69
2023-05-11T12:37:38.844Z,56.72
2023-05-11T12:38:38.820Z,57.36
2023-05-11T12:39:38.810Z,56.72
2023-05-11T12:40:38.949Z,56.24
2023-05-11T12:41:38.798Z,56.24
2023-05-11T12:42:38.808Z,56.56
2023-05-11T12:43:38.804Z,56.24
2023-05-11T12:44:38.808Z,56.72
2023-05-11T12:45:38.776Z,55.75
2023-05-11T12:46:38.864Z,55.75
2023-05-11T12:47:38.768Z,57.36
2023-05-11T12:48:38.773Z,56.72
2023-05-11T12:49:38.705Z,56.24
2023-05-11T12:50:38.765Z,57.04
2023-05-11T12:51:38.723Z,57.36
2023-05-11T12:52:38.687Z,57.04
2023-05-11T12:53:38.683Z,56.72